Actualités

Et un breveté de plus!!!!
Clément Cadier, notre plus jeune pilote, a réussi brillamment son brevet de Base en janvier 2017.

De gauche à droite : Jean Luc son Instructeur, Michel le testeur et Clément.

«Toutes nos félicitations Clément!!! »

Admin - 06 février 2017 - Mots clés : aucun

Les ailes du Grand Prix
Le samedi 25 juin 2016, nous avons eu l'honneur d'accueillir "les ailes du Grand Prix" qui regroupa une vingtaine d'avions de collection. Cette escadrille s'est regroupée pour aller faire honneur aux gentleman driver et leurs 202 véhicules d'exceptions, venues sur le domaine du Golf de Roiffé. Cette manifestation s'est déroulée dans le cadre du Grand Prix de Tours qui s'est relocalisé à Chinon (37) en 2016.

Admin - 28 juin 2016 - Mots clés : aucun

Fête du 1er mai à l'aéroclub
Avec l’aide de l’ANEG, notre Aéroclub organise une fête le week end du 1er mai pour l’arrivée du nouveau DR400/180 F-HZAF.

L'élément fort sera le samedi midi : la remise des clés du F-HZAF par le Président de l'ANEG au Président de la CMCAS de Tours-Blois.

Admin - 31 mars 2015 - Mots clés : aucun

Notice de pointage des heures de vols sur les Robin
Suite au dernier CD, le Président a envoyé la notice jointe (Pointage HDV)

Concernant le changement du mode de pointage des heures de vols sur les avions Robin. Cette procédure est applicable immédiatement.

Bons vols

Admin - 28 mars 2015 - Mots clés : aucun

F-HZAF est opérationnel
F-HZAF, DR400-180Regent - quadriplace de voyage - vient en remplacement de F-BVMP vendu par son propriétaire l'ANEG.

Pour voler à bord de ce nouvel avion, vous devez contacter un instructeur pour un "lâcher" préalable.

Bons vols à bord de ce bel avion récent.


Admin - 16 mars 2015 - Mots clés : aucun

Lavage des avions
Il faut prévoir de laver les avions tout au bout du parking pour éviter d’entasser la boue devant les hangars. 

Admin - 23 février 2015 - Mots clés : aucun

page 1 sur 2suivante



Webcam :

Nuit aéronautique

19 Jun 2018

Heure locale,
pour LFDL uniquement.

Lever du soleil aéronautique :05:35
Lever du soleil :06:05
Coucher du soleil :21:56
Coucher du soleil aéronautique :22:26

Metar

LFBI :
2018/06/19 02:00
LFBI 190200Z AUTO 24002KT CAVOK 13/13 Q1025 TEMPO 0500 FG
LFBI :
Poitiers, France (LFBI) 46-35N 000-19E 120M
Jun 18, 2018 - 10:00 PM EDT / 2018.06.19 0200 UTC
Wind: from the WSW (240 degrees) at 2 MPH (2 KT):0
Visibility: greater than 7 mile(s):0
Temperature: 55 F (13 C)
Dew Point: 55 F (13 C)
Relative Humidity: 100%
Pressure (altimeter): 30.27 in. Hg (1025 hPa)
ob: LFBI 190200Z AUTO 24002KT CAVOK 13/13 Q1025 TEMPO 0500 FG
cycle: 2

Afficher le metar d'une autre station :
Code OACI :

Aéroclub de Loudun


Bellevue
86200 Loudun


Contacter Michel Richez (président)

  • Mail:michel.richez@free.fr
  • Tel:09-50-38-02-06
  • Mobile:06-52-73-09-01



agrandir le plan

Newsletter

Mon e-mail :